Time;durP1;ratioP1;P1;durP2;ratioP2;P2;SDS_P1;SDS_P2;PMS_P1;PMS_P2;Temp;Humidity;BMP_temperature;BMP_pressure;BME280_temperature;BME280_humidity;BME280_pressure;Samples;Min_cycle;Max_cycle;Signal;HPM_P1;HPM_P2
2023/05/25 00:01:43;;;;;;;11.93;4.38;;;12.80;53.70;;;;;;4985154;28;20053;-36
2023/05/25 00:04:15;;;;;;;19.05;4.85;;;12.80;53.70;;;;;;4983141;28;20054;-37
2023/05/25 00:06:46;;;;;;;13.50;4.65;;;12.80;53.70;;;;;;4981250;28;20054;-36
2023/05/25 00:09:15;;;;;;;14.45;4.40;;;12.70;53.70;;;;;;4983715;28;20145;-37
2023/05/25 00:11:42;;;;;;;9.65;3.88;;;12.70;53.80;;;;;;4982995;28;20085;-36
2023/05/25 00:14:09;;;;;;;11.70;4.10;;;12.70;53.80;;;;;;4983121;28;20410;-41
2023/05/25 00:16:39;;;;;;;11.73;4.32;;;12.70;53.80;;;;;;4982481;28;20502;-39
2023/05/25 00:19:09;;;;;;;18.63;4.30;;;12.70;53.80;;;;;;4982696;28;20077;-38
2023/05/25 00:21:37;;;;;;;15.88;4.78;;;12.70;54.40;;;;;;4983047;28;20061;-37
2023/05/25 00:24:04;;;;;;;12.45;4.43;;;12.60;53.90;;;;;;4983779;28;20399;-37
2023/05/25 00:26:33;;;;;;;12.15;4.25;;;12.60;53.90;;;;;;4982739;28;20510;-43
2023/05/25 00:29:00;;;;;;;17.10;4.88;;;12.60;53.90;;;;;;4983368;28;20065;-39
2023/05/25 00:31:28;;;;;;;14.73;4.25;;;12.60;53.90;;;;;;4983611;28;20058;-38
2023/05/25 00:33:55;;;;;;;19.10;5.10;;;12.60;54.00;;;;;;4986286;28;20051;-36
2023/05/25 00:36:23;;;;;;;17.70;4.85;;;12.60;54.00;;;;;;4987326;28;20487;-40
2023/05/25 00:38:50;;;;;;;12.30;4.55;;;12.60;54.00;;;;;;4987757;28;20053;-39
2023/05/25 00:41:18;;;;;;;12.88;4.45;;;12.60;54.00;;;;;;4986246;28;20050;-37
2023/05/25 00:43:47;;;;;;;11.18;3.90;;;12.60;54.10;;;;;;4986187;28;20414;-36
2023/05/25 00:46:15;;;;;;;13.80;4.47;;;12.50;54.00;;;;;;4985364;28;20054;-39
2023/05/25 00:48:43;;;;;;;10.27;3.85;;;12.50;54.30;;;;;;4987364;28;20061;-38
2023/05/25 00:51:12;;;;;;;22.42;4.95;;;12.50;54.00;;;;;;4985104;28;20050;-36
2023/05/25 00:53:40;;;;;;;18.35;5.72;;;12.40;54.10;;;;;;4986882;28;20047;-39
2023/05/25 00:56:14;;;;;;;18.92;5.30;;;12.40;54.20;;;;;;4985927;28;20054;-38
2023/05/25 00:58:42;;;;;;;;;;;12.40;54.30;;;;;;4986319;28;20053;-37
2023/05/25 01:01:12;;;;;;;13.52;4.57;;;12.40;54.20;;;;;;5027429;23;19931;-48
2023/05/25 01:03:44;;;;;;;13.52;4.47;;;12.40;54.00;;;;;;5055157;28;20063;-51
2023/05/25 01:06:14;;;;;;;19.42;5.13;;;12.40;54.00;;;;;;5052029;28;20048;-48
2023/05/25 01:08:47;;;;;;;10.93;4.97;;;12.30;54.10;;;;;;5055731;28;20503;-49
2023/05/25 01:11:15;;;;;;;20.73;5.43;;;12.30;54.20;;;;;;5060214;28;20056;-48
2023/05/25 01:13:42;;;;;;;22.63;5.03;;;12.20;54.20;;;;;;5052984;28;20057;-48
2023/05/25 01:16:12;;;;;;;11.02;4.63;;;12.20;54.40;;;;;;5054674;28;20051;-48
2023/05/25 01:18:40;;;;;;;9.70;3.90;;;12.10;54.30;;;;;;5057358;28;20060;-47
2023/05/25 01:21:19;;;;;;;11.10;4.00;;;12.10;54.30;;;;;;5056405;28;20491;-47
2023/05/25 01:23:51;;;;;;;15.73;4.93;;;12.00;54.40;;;;;;5058064;28;20053;-47
2023/05/25 01:26:20;;;;;;;16.95;5.70;;;12.00;54.50;;;;;;5054766;28;20459;-47
2023/05/25 01:28:52;;;;;;;19.80;5.28;;;12.00;54.50;;;;;;5058927;28;20060;-48
2023/05/25 01:31:22;;;;;;;18.05;5.63;;;11.90;54.90;;;;;;5057529;28;20052;-48
2023/05/25 01:33:51;;;;;;;21.10;5.97;;;11.90;54.90;;;;;;5058922;28;20079;-49
2023/05/25 01:36:20;;;;;;;15.45;5.40;;;11.80;55.00;;;;;;5053740;28;20064;-48
2023/05/25 01:38:48;;;;;;;15.75;5.43;;;11.80;55.10;;;;;;5051684;28;20079;-48
2023/05/25 01:41:15;;;;;;;18.90;4.85;;;11.70;55.20;;;;;;5057392;28;20060;-47
2023/05/25 01:43:43;;;;;;;14.38;5.22;;;11.70;55.30;;;;;;5059103;28;20384;-47
2023/05/25 01:46:18;;;;;;;14.65;4.53;;;11.70;55.30;;;;;;5053054;28;20049;-47
2023/05/25 01:48:57;;;;;;;12.98;4.63;;;11.70;55.30;;;;;;5055183;28;20053;-47
2023/05/25 01:51:36;;;;;;;15.95;5.00;;;11.70;55.40;;;;;;5054966;28;20055;-50
2023/05/25 01:54:11;;;;;;;11.40;4.47;;;11.60;55.40;;;;;;5053660;28;20544;-48
2023/05/25 01:56:39;;;;;;;14.43;5.35;;;11.60;55.50;;;;;;5055017;28;20719;-47
2023/05/25 01:59:08;;;;;;;23.48;6.47;;;11.60;55.50;;;;;;5056002;28;20048;-47
2023/05/25 02:01:36;;;;;;;14.25;5.00;;;11.60;55.60;;;;;;5051130;28;20052;-48
2023/05/25 02:04:04;;;;;;;14.77;5.55;;;11.60;55.50;;;;;;5055394;28;20070;-47
2023/05/25 02:06:33;;;;;;;14.10;4.78;;;11.60;55.50;;;;;;5056530;28;20056;-47
2023/05/25 02:09:00;;;;;;;19.63;5.68;;;11.50;55.50;;;;;;5058297;28;20055;-47
2023/05/25 02:11:27;;;;;;;14.57;5.13;;;11.50;55.50;;;;;;5054923;28;20055;-46
2023/05/25 02:13:54;;;;;;;13.88;5.68;;;11.50;55.60;;;;;;5051336;28;20056;-47
2023/05/25 02:16:22;;;;;;;12.57;5.40;;;11.50;55.50;;;;;;5055965;28;20056;-48
2023/05/25 02:18:49;;;;;;;12.13;4.93;;;11.50;55.50;;;;;;5057815;28;20067;-47
2023/05/25 02:21:17;;;;;;;11.85;5.07;;;11.50;55.50;;;;;;5056705;28;20059;-48
2023/05/25 02:23:46;;;;;;;10.32;4.68;;;11.50;55.50;;;;;;5057065;28;20139;-49
2023/05/25 02:26:13;;;;;;;9.40;4.80;;;11.40;55.50;;;;;;5053342;28;20056;-47
2023/05/25 02:28:41;;;;;;;21.60;5.70;;;11.40;55.50;;;;;;5055574;28;20049;-50
2023/05/25 02:31:08;;;;;;;12.93;5.00;;;11.40;55.50;;;;;;5055785;28;20129;-48
2023/05/25 02:33:35;;;;;;;11.07;4.47;;;11.40;55.50;;;;;;5055037;28;20056;-47
2023/05/25 02:36:04;;;;;;;17.05;4.93;;;11.40;55.50;;;;;;5054104;28;20063;-47
2023/05/25 02:38:31;;;;;;;13.63;4.88;;;11.40;55.50;;;;;;5055360;28;20123;-48
2023/05/25 02:40:59;;;;;;;15.93;4.82;;;11.40;55.50;;;;;;5057086;28;20055;-47
2023/05/25 02:43:27;;;;;;;9.68;4.60;;;11.40;55.50;;;;;;5059809;28;20141;-50
2023/05/25 02:45:54;;;;;;;14.35;5.68;;;11.40;55.50;;;;;;5056509;28;20427;-50
2023/05/25 02:48:21;;;;;;;11.85;4.45;;;11.30;55.50;;;;;;5052793;28;20056;-48
2023/05/25 02:50:48;;;;;;;11.52;4.60;;;11.30;55.50;;;;;;5056593;28;20055;-47
2023/05/25 02:53:16;;;;;;;12.63;4.78;;;11.30;55.50;;;;;;5055122;28;20471;-47
2023/05/25 02:55:43;;;;;;;11.77;5.30;;;11.30;55.50;;;;;;5056836;28;20052;-48
2023/05/25 02:58:12;;;;;;;10.88;5.05;;;11.20;55.50;;;;;;5051484;28;20064;-49
2023/05/25 03:00:41;;;;;;;9.95;4.78;;;11.20;55.60;;;;;;5052474;28;20048;-48
2023/05/25 03:03:08;;;;;;;13.18;4.50;;;11.30;55.60;;;;;;5053458;28;20048;-47
2023/05/25 03:05:36;;;;;;;14.02;5.30;;;11.20;55.60;;;;;;5054140;28;20049;-48
2023/05/25 03:08:03;;;;;;;18.70;6.13;;;11.20;55.70;;;;;;5051046;28;20518;-46
2023/05/25 03:10:30;;;;;;;14.88;5.40;;;11.20;55.70;;;;;;5058364;28;20052;-47
2023/05/25 03:12:57;;;;;;;14.65;5.20;;;11.20;55.80;;;;;;5055351;28;20052;-49
2023/05/25 03:15:26;;;;;;;12.43;4.70;;;11.20;55.80;;;;;;5055092;28;20524;-48
2023/05/25 03:17:55;;;;;;;16.75;6.13;;;11.20;55.90;;;;;;5052249;28;20045;-47
2023/05/25 03:20:23;;;;;;;15.82;5.72;;;11.10;55.90;;;;;;5051819;28;20056;-47
2023/05/25 03:22:50;;;;;;;13.77;5.65;;;11.10;55.90;;;;;;5049219;28;20056;-48
2023/05/25 03:25:17;;;;;;;18.50;6.07;;;11.10;55.90;;;;;;5053141;28;20049;-48
2023/05/25 03:27:45;;;;;;;13.32;5.30;;;11.10;56.40;;;;;;5055040;28;20052;-46
2023/05/25 03:30:13;;;;;;;24.65;6.00;;;11.10;56.10;;;;;;5049529;28;20048;-47
2023/05/25 03:32:42;;;;;;;14.05;5.50;;;11.10;56.10;;;;;;5054425;28;20052;-47
2023/05/25 03:35:09;;;;;;;23.10;5.95;;;11.10;56.20;;;;;;5057397;28;20056;-50
2023/05/25 03:37:37;;;;;;;13.70;5.70;;;11.10;56.30;;;;;;5057282;28;20060;-48
2023/05/25 03:40:05;;;;;;;12.82;5.40;;;11.00;56.30;;;;;;5053884;28;20060;-47
2023/05/25 03:42:32;;;;;;;11.77;5.38;;;11.00;56.30;;;;;;5052117;28;20428;-46
2023/05/25 03:44:59;;;;;;;19.58;5.88;;;11.00;56.30;;;;;;5055377;28;20045;-46
2023/05/25 03:47:26;;;;;;;12.02;5.45;;;11.00;56.30;;;;;;5055546;28;20056;-47
2023/05/25 03:49:55;;;;;;;11.43;4.85;;;11.00;56.40;;;;;;5054368;28;20052;-47
2023/05/25 03:52:22;;;;;;;14.40;6.13;;;11.00;56.40;;;;;;5050661;28;20392;-49
2023/05/25 03:54:49;;;;;;;16.85;5.32;;;11.00;56.40;;;;;;5055419;28;20044;-48
2023/05/25 03:57:17;;;;;;;19.30;6.18;;;11.00;56.50;;;;;;5054654;28;20056;-48
2023/05/25 03:59:44;;;;;;;13.10;5.35;;;11.00;56.50;;;;;;5053003;28;20526;-48
2023/05/25 04:02:11;;;;;;;16.85;5.60;;;11.00;56.60;;;;;;5050251;28;20057;-49
2023/05/25 04:04:40;;;;;;;12.95;5.75;;;11.00;56.60;;;;;;5030595;28;20052;-47
2023/05/25 04:07:09;;;;;;;9.23;5.00;;;11.00;56.60;;;;;;5041212;28;20051;-48
2023/05/25 04:09:36;;;;;;;9.18;4.50;;;11.00;56.70;;;;;;5039447;28;20049;-47
2023/05/25 04:12:04;;;;;;;12.82;4.85;;;11.00;56.70;;;;;;5040437;28;20159;-48
2023/05/25 04:14:31;;;;;;;12.27;5.07;;;11.00;56.70;;;;;;5037642;28;20484;-46
2023/05/25 04:16:58;;;;;;;13.20;6.05;;;11.00;56.80;;;;;;5032881;28;20045;-46
2023/05/25 04:19:25;;;;;;;15.57;6.28;;;11.00;56.80;;;;;;5036734;28;20056;-48
2023/05/25 04:21:52;;;;;;;15.48;5.88;;;11.00;56.90;;;;;;5038501;28;20060;-47
2023/05/25 04:24:21;;;;;;;12.63;4.93;;;11.00;56.60;;;;;;5038116;28;20534;-47
2023/05/25 04:26:49;;;;;;;10.95;5.32;;;11.00;56.50;;;;;;5037882;28;20048;-48
2023/05/25 04:29:16;;;;;;;10.73;5.40;;;10.90;56.60;;;;;;5060231;28;20063;-49
2023/05/25 04:31:46;;;;;;;13.00;5.20;;;10.90;56.90;;;;;;5058301;28;20514;-53
2023/05/25 04:34:13;;;;;;;16.83;6.10;;;10.80;57.00;;;;;;5060188;28;20052;-47
2023/05/25 04:36:42;;;;;;;13.07;5.25;;;10.80;57.20;;;;;;5056071;28;20429;-49
2023/05/25 04:39:09;;;;;;;17.65;6.50;;;10.80;57.40;;;;;;5055143;28;20052;-47
2023/05/25 04:41:38;;;;;;;17.17;6.50;;;10.70;57.70;;;;;;5055320;28;20053;-48
2023/05/25 04:44:05;;;;;;;17.60;6.63;;;10.70;57.70;;;;;;5059889;28;20056;-48
2023/05/25 04:46:35;;;;;;;13.38;5.28;;;10.70;57.60;;;;;;5051636;28;20064;-47
2023/05/25 04:49:04;;;;;;;17.05;6.55;;;10.60;57.60;;;;;;5053489;28;20506;-47
2023/05/25 04:51:32;;;;;;;11.77;5.03;;;10.60;57.90;;;;;;5056861;28;20079;-46
2023/05/25 04:53:59;;;;;;;13.88;5.43;;;10.60;58.10;;;;;;5055992;28;20052;-47
2023/05/25 04:56:26;;;;;;;13.90;4.78;;;10.60;58.20;;;;;;5058245;28;20056;-47
2023/05/25 04:58:55;;;;;;;13.38;5.07;;;10.60;58.20;;;;;;5054460;28;20056;-46
2023/05/25 05:01:23;;;;;;;10.90;5.13;;;10.60;58.30;;;;;;5060015;28;20079;-48
2023/05/25 05:03:50;;;;;;;9.75;4.57;;;10.70;58.30;;;;;;5057250;28;20056;-48
2023/05/25 05:06:17;;;;;;;10.73;5.07;;;10.70;58.30;;;;;;5058755;28;20074;-46
2023/05/25 05:08:45;;;;;;;11.25;5.28;;;10.70;58.30;;;;;;5057240;28;20052;-48
2023/05/25 05:11:12;;;;;;;12.32;4.63;;;10.80;58.50;;;;;;5060273;28;20067;-46
2023/05/25 05:13:39;;;;;;;11.80;5.18;;;10.80;58.50;;;;;;5054925;28;20423;-47
2023/05/25 05:16:08;;;;;;;10.68;5.10;;;10.90;58.60;;;;;;5052523;28;20055;-48
2023/05/25 05:18:35;;;;;;;15.20;5.60;;;10.90;58.70;;;;;;5055826;28;20448;-48
2023/05/25 05:21:02;;;;;;;10.27;4.95;;;11.00;58.80;;;;;;5059048;28;20052;-46
2023/05/25 05:23:29;;;;;;;18.08;6.05;;;11.00;58.90;;;;;;5057789;28;20518;-48
2023/05/25 05:25:57;;;;;;;12.30;5.30;;;11.10;59.00;;;;;;5057563;28;20048;-49
2023/05/25 05:28:26;;;;;;;18.17;6.35;;;11.20;59.10;;;;;;5055544;28;20052;-47
2023/05/25 05:30:53;;;;;;;18.27;7.20;;;11.20;59.20;;;;;;5054726;28;20048;-47
2023/05/25 05:33:22;;;;;;;9.98;5.53;;;11.20;59.20;;;;;;5058211;28;20052;-47
2023/05/25 05:35:51;;;;;;;21.95;6.15;;;11.30;59.20;;;;;;5058247;28;20052;-46
2023/05/25 05:38:18;;;;;;;17.80;6.70;;;11.40;59.30;;;;;;5053588;28;20045;-47
2023/05/25 05:40:45;;;;;;;22.38;7.22;;;11.40;59.40;;;;;;5055711;28;20060;-48
2023/05/25 05:43:14;;;;;;;21.30;7.65;;;11.50;59.50;;;;;;5055146;28;20550;-50
2023/05/25 05:45:41;;;;;;;18.88;6.40;;;11.60;59.60;;;;;;5049016;28;20060;-49
2023/05/25 05:48:09;;;;;;;18.83;6.95;;;11.60;59.60;;;;;;5054326;28;20053;-49
2023/05/25 05:50:38;;;;;;;16.30;6.70;;;11.60;59.40;;;;;;5053262;28;20052;-48
2023/05/25 05:53:06;;;;;;;20.25;7.25;;;11.60;59.20;;;;;;5059131;28;20122;-49
2023/05/25 05:55:33;;;;;;;21.80;7.55;;;11.60;59.20;;;;;;5059427;28;20496;-47
2023/05/25 05:58:00;;;;;;;22.73;8.35;;;11.60;59.50;;;;;;5060672;28;20052;-49
2023/05/25 06:00:28;;;;;;;17.67;7.07;;;11.60;59.70;;;;;;5060036;28;20068;-47
2023/05/25 06:02:55;;;;;;;17.27;7.47;;;11.60;59.60;;;;;;5054460;28;20063;-47
2023/05/25 06:05:23;;;;;;;21.30;7.90;;;11.60;59.70;;;;;;5059871;28;20053;-49
2023/05/25 06:07:51;;;;;;;23.15;8.40;;;11.60;59.70;;;;;;5060727;28;20071;-48
2023/05/25 06:10:18;;;;;;;20.75;7.88;;;11.60;59.90;;;;;;5061059;28;20496;-48
2023/05/25 06:12:46;;;;;;;22.90;8.23;;;11.70;59.90;;;;;;5061035;28;20060;-47
2023/05/25 06:15:13;;;;;;;15.73;6.88;;;11.70;60.10;;;;;;5055081;28;20411;-47
2023/05/25 06:17:41;;;;;;;14.25;7.00;;;11.80;60.10;;;;;;5057016;28;20064;-47
2023/05/25 06:20:10;;;;;;;18.15;6.80;;;11.90;60.30;;;;;;5058572;28;20060;-47
2023/05/25 06:22:37;;;;;;;19.42;7.85;;;11.90;60.40;;;;;;5047383;28;20515;-48
2023/05/25 06:25:09;;;;;;;18.05;7.38;;;12.10;60.70;;;;;;5048408;28;20063;-48
2023/05/25 06:27:36;;;;;;;21.20;7.13;;;12.20;60.90;;;;;;5055072;28;20044;-47
2023/05/25 06:30:03;;;;;;;17.77;7.55;;;12.30;60.80;;;;;;5051932;28;20045;-46
2023/05/25 06:32:31;;;;;;;16.52;7.20;;;12.40;60.80;;;;;;5057891;28;20048;-47
2023/05/25 06:34:58;;;;;;;34.53;16.52;;;12.50;60.90;;;;;;5056094;28;20044;-47
2023/05/25 06:37:27;;;;;;;28.05;12.45;;;12.60;60.80;;;;;;5059506;28;20079;-49
2023/05/25 06:39:54;;;;;;;24.13;9.35;;;12.70;60.70;;;;;;5057952;28;20060;-51
2023/05/25 06:42:23;;;;;;;17.65;8.25;;;12.80;60.40;;;;;;5052461;28;20404;-48
2023/05/25 06:44:50;;;;;;;16.65;7.28;;;12.90;60.20;;;;;;5059936;28;20056;-51
2023/05/25 06:47:17;;;;;;;19.33;6.22;;;13.00;60.20;;;;;;5048124;28;20084;-49
2023/05/25 06:49:44;;;;;;;15.70;6.68;;;13.10;60.10;;;;;;5053259;28;20419;-48
2023/05/25 06:52:12;;;;;;;13.68;6.35;;;13.20;60.10;;;;;;5056180;28;20060;-49
2023/05/25 06:54:39;;;;;;;17.33;7.70;;;13.40;60.00;;;;;;5056074;28;20056;-51
2023/05/25 06:57:06;;;;;;;16.25;6.80;;;13.50;59.80;;;;;;5060779;28;20049;-49
2023/05/25 06:59:35;;;;;;;16.35;6.50;;;13.60;59.60;;;;;;5061759;28;20049;-50
2023/05/25 07:02:02;;;;;;;14.07;6.53;;;13.70;59.50;;;;;;5059574;28;20063;-51
2023/05/25 07:04:30;;;;;;;18.30;6.25;;;13.70;59.30;;;;;;5059317;28;20049;-51
2023/05/25 07:06:57;;;;;;;12.18;5.10;;;13.90;59.30;;;;;;5055567;28;20056;-49
2023/05/25 07:09:24;;;;;;;16.58;6.18;;;14.00;59.20;;;;;;5060001;28;20048;-49
2023/05/25 07:11:51;;;;;;;14.77;6.07;;;14.00;59.10;;;;;;5055482;28;20422;-48
2023/05/25 07:14:19;;;;;;;14.68;5.85;;;14.10;59.10;;;;;;5053770;28;20044;-48
2023/05/25 07:16:47;;;;;;;15.98;7.28;;;14.20;58.90;;;;;;5055810;28;20056;-48
2023/05/25 07:19:14;;;;;;;18.67;6.20;;;14.30;58.90;;;;;;5057805;28;20057;-48
2023/05/25 07:21:42;;;;;;;17.95;5.65;;;14.40;58.80;;;;;;5054994;28;20049;-48
2023/05/25 07:24:09;;;;;;;14.40;5.53;;;14.50;58.70;;;;;;5056340;28;20048;-48
2023/05/25 07:26:37;;;;;;;14.20;6.07;;;14.60;58.50;;;;;;5060271;28;20060;-49
2023/05/25 07:29:04;;;;;;;13.30;5.43;;;14.70;58.20;;;;;;5055599;28;20051;-48
2023/05/25 07:31:31;;;;;;;22.52;8.40;;;14.80;58.10;;;;;;5057481;28;20079;-50
2023/05/25 07:34:00;;;;;;;16.17;7.05;;;14.90;57.50;;;;;;5056263;28;20048;-46
2023/05/25 07:36:27;;;;;;;16.05;5.95;;;14.90;56.90;;;;;;5056118;28;20045;-50
2023/05/25 07:38:54;;;;;;;17.83;7.03;;;15.00;56.60;;;;;;5058354;28;20052;-48
2023/05/25 07:41:21;;;;;;;18.05;6.82;;;15.10;56.50;;;;;;5056104;28;20076;-48
2023/05/25 07:43:51;;;;;;;14.48;5.35;;;15.10;56.10;;;;;;5052390;28;20059;-48
2023/05/25 07:46:21;;;;;;;15.27;6.15;;;15.20;55.90;;;;;;5052245;28;20445;-48
2023/05/25 07:48:48;;;;;;;13.45;5.72;;;15.20;55.30;;;;;;5056246;28;21488;-48
2023/05/25 07:51:17;;;;;;;11.20;4.93;;;15.30;55.20;;;;;;5058510;28;20403;-47
2023/05/25 07:53:44;;;;;;;17.20;6.03;;;15.30;55.30;;;;;;5059422;28;20064;-48
2023/05/25 07:56:11;;;;;;;15.85;4.63;;;15.40;55.40;;;;;;5054521;28;20048;-47
2023/05/25 07:58:38;;;;;;;11.90;4.75;;;15.40;55.50;;;;;;5058538;28;20056;-49
2023/05/25 08:01:06;;;;;;;8.93;4.00;;;15.50;55.60;;;;;;5058948;28;20057;-48
2023/05/25 08:03:33;;;;;;;16.52;4.82;;;15.60;55.40;;;;;;5058576;28;20052;-49
2023/05/25 08:06:00;;;;;;;15.45;5.25;;;15.70;55.60;;;;;;5058224;28;20526;-47
2023/05/25 08:08:29;;;;;;;16.38;6.25;;;15.70;55.30;;;;;;5059878;28;20079;-48
2023/05/25 08:10:56;;;;;;;12.05;5.05;;;15.80;54.70;;;;;;5059503;28;20052;-49
2023/05/25 08:13:23;;;;;;;12.38;4.60;;;15.80;54.80;;;;;;5057595;28;20060;-49
2023/05/25 08:15:50;;;;;;;13.25;4.95;;;15.90;54.70;;;;;;5058326;28;20053;-48
2023/05/25 08:18:18;;;;;;;21.05;6.10;;;16.00;54.80;;;;;;5058604;28;20056;-50
2023/05/25 08:20:45;;;;;;;19.70;5.35;;;16.10;53.90;;;;;;5054256;28;20060;-47
2023/05/25 08:23:12;;;;;;;19.50;6.90;;;16.10;54.10;;;;;;5052420;28;20049;-47
2023/05/25 08:25:41;;;;;;;17.45;6.68;;;16.20;54.00;;;;;;5054594;28;20068;-48
2023/05/25 08:28:08;;;;;;;18.02;6.30;;;16.20;53.70;;;;;;5057941;28;20055;-50
2023/05/25 08:30:36;;;;;;;15.05;6.55;;;16.30;53.80;;;;;;5056692;28;20060;-48
2023/05/25 08:33:04;;;;;;;13.48;6.25;;;16.30;53.70;;;;;;5057992;28;20087;-46
2023/05/25 08:35:31;;;;;;;17.15;7.15;;;16.30;53.70;;;;;;5059019;28;20384;-47
2023/05/25 08:37:58;;;;;;;18.52;5.85;;;16.40;53.70;;;;;;5057877;28;20052;-49
2023/05/25 08:40:28;;;;;;;14.40;5.15;;;16.40;53.90;;;;;;5053375;28;20064;-49
2023/05/25 08:42:57;;;;;;;20.83;6.85;;;16.50;53.80;;;;;;5052598;28;20076;-48
2023/05/25 08:45:24;;;;;;;20.38;6.30;;;16.50;53.60;;;;;;5052944;28;20061;-51
2023/05/25 08:47:57;;;;;;;17.65;6.32;;;16.50;52.90;;;;;;5051818;28;20082;-48
2023/05/25 08:50:26;;;;;;;14.20;6.18;;;16.50;52.60;;;;;;5042915;28;20483;-48
2023/05/25 08:52:57;;;;;;;19.58;6.25;;;16.60;52.50;;;;;;5046671;28;20483;-47
2023/05/25 08:55:27;;;;;;;15.23;6.55;;;16.60;52.30;;;;;;5056998;28;20056;-48
2023/05/25 08:58:00;;;;;;;17.75;6.80;;;16.70;52.40;;;;;;5058057;28;20060;-49
2023/05/25 09:00:33;;;;;;;18.45;6.93;;;16.70;52.60;;;;;;5057661;28;20051;-48
2023/05/25 09:03:07;;;;;;;12.55;5.65;;;16.70;52.50;;;;;;5057519;28;20087;-49
2023/05/25 09:05:35;;;;;;;15.50;6.47;;;16.80;52.60;;;;;;5056683;28;20048;-48
2023/05/25 09:08:05;;;;;;;13.63;5.72;;;16.90;52.90;;;;;;5056561;28;20060;-48
2023/05/25 09:10:34;;;;;;;16.55;6.03;;;16.90;53.00;;;;;;5057920;28;20399;-48
2023/05/25 09:13:03;;;;;;;15.05;5.88;;;17.00;52.70;;;;;;5057683;28;20510;-48
2023/05/25 09:15:31;;;;;;;13.77;5.75;;;17.10;52.60;;;;;;5057138;28;20040;-47
2023/05/25 09:17:58;;;;;;;13.15;5.68;;;17.10;52.30;;;;;;5057682;28;20053;-49
2023/05/25 09:20:30;;;;;;;13.85;4.95;;;17.20;51.60;;;;;;5057731;28;20059;-47
2023/05/25 09:22:58;;;;;;;10.55;5.05;;;17.20;52.50;;;;;;5054392;28;20056;-46
2023/05/25 09:25:26;;;;;;;17.63;7.47;;;17.40;52.70;;;;;;5055808;28;20061;-47
2023/05/25 09:27:55;;;;;;;18.38;6.25;;;17.50;51.60;;;;;;5056578;28;21050;-50
2023/05/25 09:30:23;;;;;;;21.92;7.38;;;17.60;51.00;;;;;;5053169;28;20052;-47
2023/05/25 09:32:51;;;;;;;17.77;7.35;;;17.70;50.30;;;;;;5054165;28;20493;-49
2023/05/25 09:35:18;;;;;;;14.48;5.50;;;17.80;50.10;;;;;;5053593;28;20057;-48
2023/05/25 09:37:47;;;;;;;21.13;7.50;;;17.80;50.40;;;;;;5050862;28;20388;-53
2023/05/25 09:40:15;;;;;;;17.20;6.47;;;17.90;50.50;;;;;;5057443;28;20056;-50
2023/05/25 09:42:42;;;;;;;19.85;6.68;;;17.90;49.90;;;;;;5058871;28;20052;-48
2023/05/25 09:45:10;;;;;;;14.68;6.07;;;18.00;49.70;;;;;;5058217;28;20044;-50
2023/05/25 09:47:40;;;;;;;19.02;6.70;;;18.00;49.80;;;;;;5059158;28;20056;-47
2023/05/25 09:50:09;;;;;;;18.35;6.65;;;18.00;49.80;;;;;;5057704;28;20049;-48
2023/05/25 09:52:36;;;;;;;18.15;6.50;;;18.10;49.30;;;;;;5051605;28;20408;-47
2023/05/25 09:55:08;;;;;;;14.38;6.03;;;18.10;49.40;;;;;;5057477;28;20416;-50
2023/05/25 09:57:36;;;;;;;16.35;6.97;;;18.10;49.30;;;;;;5047728;28;20069;-48
2023/05/25 10:00:04;;;;;;;12.25;5.72;;;18.20;49.10;;;;;;5046500;28;20497;-49
2023/05/25 10:02:32;;;;;;;16.60;6.07;;;18.20;49.00;;;;;;5047547;28;20052;-49
2023/05/25 10:05:01;;;;;;;17.65;5.40;;;18.20;49.10;;;;;;5043974;28;20057;-48
2023/05/25 10:07:29;;;;;;;12.20;5.40;;;18.30;49.30;;;;;;5043165;28;20492;-50
2023/05/25 10:09:59;;;;;;;14.48;5.13;;;18.30;49.20;;;;;;5044069;28;20059;-48
2023/05/25 10:12:27;;;;;;;15.50;5.90;;;18.40;48.40;;;;;;5042860;28;20548;-49
2023/05/25 10:14:56;;;;;;;15.63;5.10;;;18.40;48.40;;;;;;5043649;28;20465;-49
2023/05/25 10:17:26;;;;;;;11.85;5.05;;;18.50;48.20;;;;;;5048644;28;20057;-49
2023/05/25 10:19:57;;;;;;;12.25;4.85;;;18.50;49.10;;;;;;5044212;28;20063;-51
2023/05/25 10:22:30;;;;;;;19.00;6.00;;;18.60;47.90;;;;;;5042583;28;20048;-47
2023/05/25 10:25:07;;;;;;;20.23;5.47;;;18.70;47.30;;;;;;5044292;28;20061;-54
2023/05/25 10:27:40;;;;;;;20.90;6.28;;;18.80;47.60;;;;;;5045998;28;20057;-48
2023/05/25 10:30:09;;;;;;;12.10;5.85;;;18.80;47.30;;;;;;5055154;28;20057;-49
2023/05/25 10:32:38;;;;;;;14.52;5.60;;;18.90;47.30;;;;;;5055908;28;20061;-49
2023/05/25 10:35:06;;;;;;;14.05;5.40;;;18.90;46.60;;;;;;5058519;28;20056;-48
2023/05/25 10:37:37;;;;;;;12.82;5.03;;;18.90;47.30;;;;;;5054247;28;20072;-59
2023/05/25 10:40:08;;;;;;;12.82;5.93;;;19.00;46.10;;;;;;5054357;28;20518;-49
2023/05/25 10:42:37;;;;;;;12.95;5.30;;;19.00;45.40;;;;;;5043843;28;20049;-51
2023/05/25 10:45:05;;;;;;;14.00;5.47;;;19.00;45.80;;;;;;5043078;28;20044;-49
2023/05/25 10:47:34;;;;;;;11.85;4.85;;;19.00;46.20;;;;;;5048328;28;20056;-48
2023/05/25 10:50:02;;;;;;;10.15;4.82;;;19.00;46.40;;;;;;5045795;28;20045;-48
2023/05/25 10:52:30;;;;;;;9.82;4.28;;;19.10;46.40;;;;;;5048986;28;20056;-50
2023/05/25 10:55:00;;;;;;;12.45;4.68;;;19.10;46.50;;;;;;5050191;28;20510;-47
2023/05/25 10:57:28;;;;;;;12.57;4.85;;;19.20;46.50;;;;;;5049464;28;20056;-47
2023/05/25 11:00:04;;;;;;;15.07;4.68;;;19.20;46.40;;;;;;5049986;28;20045;-48
2023/05/25 11:02:49;;;;;;;14.43;4.85;;;19.40;46.70;;;;;;5051020;28;20055;-48
2023/05/25 11:05:33;;;;;;;19.00;5.18;;;19.50;46.60;;;;;;5050845;28;20079;-48
2023/05/25 11:08:02;;;;;;;12.40;4.25;;;19.60;45.60;;;;;;5047812;28;20060;-49
2023/05/25 11:10:55;;;;;;;12.05;5.28;;;19.60;45.80;;;;;;5050235;28;20514;-48
2023/05/25 11:13:34;;;;;;;12.00;4.78;;;19.60;45.60;;;;;;5054441;28;20052;-52
2023/05/25 11:16:23;;;;;;;13.57;4.68;;;19.70;45.60;;;;;;5054726;28;20056;-48
2023/05/25 11:18:52;;;;;;;12.70;3.97;;;19.70;45.60;;;;;;5053565;28;20068;-49
2023/05/25 11:21:39;;;;;;;12.27;4.20;;;19.70;45.60;;;;;;5056486;28;20067;-49
2023/05/25 11:24:15;;;;;;;7.90;3.50;;;19.80;44.80;;;;;;5057889;28;20048;-58
2023/05/25 11:26:55;;;;;;;10.32;3.80;;;19.90;45.30;;;;;;5049505;28;20419;-51
2023/05/25 11:29:24;;;;;;;7.75;3.40;;;19.90;45.10;;;;;;5042583;28;20053;-53
2023/05/25 11:31:55;;;;;;;10.57;4.05;;;20.00;44.70;;;;;;5050503;28;20055;-50
2023/05/25 11:34:24;;;;;;;10.32;3.88;;;20.00;43.00;;;;;;5050203;28;20056;-52
2023/05/25 11:36:56;;;;;;;12.55;3.65;;;20.00;45.10;;;;;;5041542;28;20071;-51
2023/05/25 11:39:24;;;;;;;12.98;3.60;;;20.10;45.20;;;;;;5055068;28;20052;-48
2023/05/25 11:41:55;;;;;;;14.27;4.70;;;20.20;45.20;;;;;;5057928;28;20049;-50
2023/05/25 11:44:28;;;;;;;13.00;4.18;;;20.30;44.50;;;;;;5059365;28;20055;-57
2023/05/25 11:46:57;;;;;;;7.95;3.47;;;20.30;43.50;;;;;;5054926;28;20162;-48
2023/05/25 11:49:24;;;;;;;10.50;4.47;;;20.30;43.80;;;;;;5059489;28;20052;-50
2023/05/25 11:51:52;;;;;;;10.73;4.30;;;20.40;44.20;;;;;;5055864;28;20111;-56
2023/05/25 11:54:24;;;;;;;18.33;4.80;;;20.40;43.40;;;;;;5061773;28;20056;-49
2023/05/25 11:56:52;;;;;;;13.77;4.45;;;20.40;43.40;;;;;;5058117;28;20051;-50
2023/05/25 11:59:22;;;;;;;13.82;4.38;;;20.40;43.50;;;;;;5058354;28;20053;-48
2023/05/25 12:01:57;;;;;;;11.50;3.55;;;20.40;43.80;;;;;;5058495;28;20055;-49
2023/05/25 12:04:24;;;;;;;17.55;4.65;;;20.40;43.90;;;;;;5059861;28;20059;-55
2023/05/25 12:06:51;;;;;;;12.07;5.05;;;20.50;43.20;;;;;;5058349;28;20404;-51
2023/05/25 12:09:22;;;;;;;10.07;3.97;;;20.50;43.10;;;;;;5057479;28;20064;-48
2023/05/25 12:11:49;;;;;;;14.23;4.13;;;20.50;43.40;;;;;;5050443;28;20048;-51
2023/05/25 12:14:17;;;;;;;14.75;4.10;;;20.60;42.90;;;;;;5056279;28;20488;-55
2023/05/25 12:16:46;;;;;;;10.55;4.05;;;20.60;43.80;;;;;;5059328;28;20659;-48
2023/05/25 12:19:13;;;;;;;8.88;3.15;;;20.60;44.20;;;;;;5059268;28;20059;-50
2023/05/25 12:21:41;;;;;;;10.93;4.53;;;20.70;44.30;;;;;;5055710;28;20055;-54
2023/05/25 12:24:11;;;;;;;13.55;5.53;;;20.80;43.90;;;;;;5060308;28;20056;-48
2023/05/25 12:26:47;;;;;;;13.38;5.78;;;20.90;43.70;;;;;;5058524;28;20053;-51
2023/05/25 12:29:14;;;;;;;12.27;5.15;;;21.00;43.70;;;;;;5060909;28;20052;-49
2023/05/25 12:31:42;;;;;;;13.18;5.28;;;21.00;43.70;;;;;;5052920;28;20059;-47
2023/05/25 12:34:12;;;;;;;19.63;6.03;;;21.00;43.50;;;;;;5062392;28;20415;-48
2023/05/25 12:36:41;;;;;;;13.77;6.90;;;21.00;43.10;;;;;;5061832;28;20063;-48
2023/05/25 12:39:10;;;;;;;14.18;6.70;;;21.00;42.70;;;;;;5064152;28;20057;-51
2023/05/25 12:41:48;;;;;;;17.92;7.38;;;21.00;43.00;;;;;;5062483;28;20051;-47
2023/05/25 12:44:24;;;;;;;16.52;6.57;;;20.90;43.20;;;;;;5059076;28;20048;-48
2023/05/25 12:46:52;;;;;;;19.75;7.03;;;20.90;43.60;;;;;;5056620;28;20049;-49